Time;durP1;ratioP1;P1;durP2;ratioP2;P2;SDS_P1;SDS_P2;PMS_P1;PMS_P2;Temp;Humidity;BMP_temperature;BMP_pressure;BME280_temperature;BME280_humidity;BME280_pressure;Samples;Min_cycle;Max_cycle;Signal;HPM_P1;HPM_P2
2022/03/07 00:01:55;;;;;;;4.38;2.63;;;20.80;63.00;;;;;;7838764;28;20213;-46
2022/03/07 00:05:40;;;;;;;3.63;2.25;;;20.80;63.00;;;;;;7839046;28;20174;-45
2022/03/07 00:09:26;;;;;;;5.30;2.28;;;20.80;63.10;;;;;;7838712;28;20695;-46
2022/03/07 00:13:12;;;;;;;3.90;2.35;;;20.70;63.10;;;;;;7838823;28;20316;-45
2022/03/07 00:16:57;;;;;;;3.83;2.45;;;20.70;64.00;;;;;;7838722;28;20174;-46
2022/03/07 00:20:43;;;;;;;2.78;2.15;;;20.70;63.10;;;;;;7838301;28;20595;-46
2022/03/07 00:24:28;;;;;;;2.70;2.03;;;20.60;63.10;;;;;;7838794;28;20186;-46
2022/03/07 00:28:17;;;;;;;2.55;2.08;;;20.60;63.10;;;;;;7838465;28;20255;-46
2022/03/07 00:32:03;;;;;;;2.50;2.00;;;20.50;63.00;;;;;;7838106;28;20200;-47
2022/03/07 00:35:48;;;;;;;4.38;2.20;;;20.50;63.00;;;;;;7838316;28;20178;-46
2022/03/07 00:39:34;;;;;;;4.68;2.40;;;20.50;63.00;;;;;;7838058;28;20182;-46
2022/03/07 00:43:21;;;;;;;2.45;2.20;;;20.40;63.00;;;;;;7838229;28;20236;-45
2022/03/07 00:47:06;;;;;;;2.58;2.13;;;20.40;63.00;;;;;;7838242;28;20180;-45
2022/03/07 00:50:53;;;;;;;2.67;2.17;;;20.30;63.00;;;;;;7837575;28;20206;-49
2022/03/07 00:54:38;;;;;;;2.63;1.90;;;20.30;63.00;;;;;;7838423;28;20189;-46
2022/03/07 00:58:24;;;;;;;5.05;2.40;;;20.30;63.00;;;;;;7838279;28;20166;-45
2022/03/07 01:02:10;;;;;;;2.88;2.22;;;20.20;63.10;;;;;;7837653;28;20710;-46
2022/03/07 01:05:55;;;;;;;2.63;2.05;;;20.20;63.10;;;;;;7837896;28;20200;-46
2022/03/07 01:09:41;;;;;;;3.13;2.22;;;20.10;63.00;;;;;;7837737;28;20252;-46
2022/03/07 01:13:26;;;;;;;3.33;2.28;;;20.10;63.10;;;;;;7837386;28;20194;-48
2022/03/07 01:17:12;;;;;;;3.45;2.33;;;20.10;63.00;;;;;;7837693;28;20174;-46
2022/03/07 01:20:57;;;;;;;2.90;2.10;;;20.10;63.10;;;;;;7837306;28;20174;-46
2022/03/07 01:24:43;;;;;;;3.33;2.03;;;20.00;63.10;;;;;;7837662;28;20173;-47
2022/03/07 01:28:28;;;;;;;3.22;2.10;;;20.00;63.00;;;;;;7837499;28;20216;-47
2022/03/07 01:32:14;;;;;;;3.03;2.20;;;19.90;63.00;;;;;;7837215;28;20686;-46
2022/03/07 01:35:59;;;;;;;2.15;1.95;;;19.90;63.00;;;;;;7837575;28;20187;-46
2022/03/07 01:39:45;;;;;;;2.53;2.13;;;19.90;63.00;;;;;;7837132;28;20177;-45
2022/03/07 01:43:30;;;;;;;3.35;2.03;;;19.80;63.00;;;;;;7837292;28;20201;-46
2022/03/07 01:47:16;;;;;;;3.47;2.25;;;19.80;63.00;;;;;;7837222;28;20213;-46
2022/03/07 01:51:02;;;;;;;2.85;2.20;;;19.80;63.00;;;;;;7836793;28;20584;-45
2022/03/07 01:54:48;;;;;;;3.60;2.30;;;19.80;63.00;;;;;;7837148;28;20624;-45
2022/03/07 01:58:34;;;;;;;2.63;2.20;;;19.70;63.00;;;;;;7837080;28;20563;-45
2022/03/07 02:02:20;;;;;;;3.00;2.42;;;19.70;63.00;;;;;;7840193;28;20267;-47
2022/03/07 02:06:07;;;;;;;2.63;2.20;;;19.60;63.10;;;;;;7842554;28;20174;-46
2022/03/07 02:09:54;;;;;;;4.82;2.50;;;19.60;63.10;;;;;;7842165;28;20206;-45
2022/03/07 02:13:39;;;;;;;2.17;1.90;;;19.60;63.10;;;;;;7842255;28;20194;-46
2022/03/07 02:17:25;;;;;;;2.22;2.00;;;19.60;63.10;;;;;;7842229;28;20194;-45
2022/03/07 02:21:14;;;;;;;3.05;2.40;;;19.50;63.10;;;;;;7841798;28;20677;-45
2022/03/07 02:24:59;;;;;;;2.47;2.17;;;19.50;63.10;;;;;;7842039;28;20182;-46
2022/03/07 02:28:46;;;;;;;5.28;2.85;;;19.50;63.10;;;;;;7841872;28;20209;-46
2022/03/07 02:32:32;;;;;;;2.85;2.40;;;19.50;63.10;;;;;;7841506;28;20556;-46
2022/03/07 02:36:18;;;;;;;2.63;2.03;;;19.40;63.10;;;;;;7841667;28;20170;-46
2022/03/07 02:40:04;;;;;;;2.78;2.10;;;19.40;63.10;;;;;;7841311;28;20636;-46
2022/03/07 02:43:49;;;;;;;2.83;2.00;;;19.40;63.10;;;;;;7841499;28;20198;-45
2022/03/07 02:47:35;;;;;;;3.38;2.35;;;19.30;63.10;;;;;;7841839;28;20640;-46
2022/03/07 02:51:20;;;;;;;2.70;2.30;;;19.30;63.10;;;;;;7841378;28;20284;-46
2022/03/07 02:55:07;;;;;;;3.15;2.30;;;19.30;63.20;;;;;;7841760;28;20174;-45
2022/03/07 02:58:52;;;;;;;3.10;2.08;;;19.30;63.20;;;;;;7841358;28;20550;-46
2022/03/07 03:02:38;;;;;;;4.03;2.10;;;19.30;63.20;;;;;;7840634;28;20225;-45
2022/03/07 03:06:23;;;;;;;2.63;2.40;;;19.20;63.20;;;;;;7840890;28;20178;-45
2022/03/07 03:10:09;;;;;;;3.08;2.28;;;19.20;63.20;;;;;;7840425;28;20202;-46
2022/03/07 03:13:55;;;;;;;3.13;1.98;;;19.20;63.10;;;;;;7840382;28;20751;-46
2022/03/07 03:17:41;;;;;;;3.03;2.20;;;19.10;63.10;;;;;;7840546;28;20573;-46
2022/03/07 03:21:27;;;;;;;4.50;2.17;;;19.10;63.20;;;;;;7840201;28;20194;-46
2022/03/07 03:25:16;;;;;;;2.22;2.03;;;19.10;63.20;;;;;;7840252;28;20266;-50
2022/03/07 03:29:02;;;;;;;2.35;2.13;;;19.00;63.10;;;;;;7839997;28;20201;-46
2022/03/07 03:32:48;;;;;;;2.70;2.33;;;19.00;63.20;;;;;;7840003;28;20190;-46
2022/03/07 03:36:34;;;;;;;2.30;2.10;;;19.00;63.20;;;;;;7840163;28;20265;-45
2022/03/07 03:40:19;;;;;;;2.60;2.40;;;19.00;63.20;;;;;;7839962;28;20712;-45
2022/03/07 03:44:05;;;;;;;2.25;2.05;;;19.00;63.20;;;;;;7839606;28;20696;-45
2022/03/07 03:47:51;;;;;;;2.83;2.22;;;18.90;63.10;;;;;;7839573;28;20235;-45
2022/03/07 03:51:38;;;;;;;2.40;2.20;;;18.90;63.10;;;;;;7839243;28;20190;-45
2022/03/07 03:55:23;;;;;;;3.90;2.30;;;18.90;63.20;;;;;;7839382;28;20174;-45
2022/03/07 03:59:09;;;;;;;2.30;2.08;;;18.90;63.20;;;;;;7839040;28;20184;-45
2022/03/07 04:02:54;;;;;;;3.17;2.17;;;18.90;63.20;;;;;;7839038;28;20209;-45
2022/03/07 04:06:41;;;;;;;2.53;2.30;;;18.80;63.20;;;;;;7839306;28;20573;-45
2022/03/07 04:10:27;;;;;;;3.42;2.42;;;18.80;63.20;;;;;;7839167;28;20706;-47
2022/03/07 04:14:13;;;;;;;2.55;2.35;;;18.80;63.30;;;;;;7839093;28;20629;-45
2022/03/07 04:17:58;;;;;;;2.42;2.05;;;18.70;63.20;;;;;;7838781;28;20265;-45
2022/03/07 04:21:44;;;;;;;3.15;2.53;;;18.70;63.20;;;;;;7838656;28;20293;-46
2022/03/07 04:25:29;;;;;;;5.53;2.47;;;18.70;63.20;;;;;;7838123;28;20178;-45
2022/03/07 04:29:15;;;;;;;2.40;2.20;;;18.70;63.30;;;;;;7838280;28;20229;-47
2022/03/07 04:33:00;;;;;;;3.22;2.17;;;18.70;64.20;;;;;;7838447;28;20202;-45
2022/03/07 04:36:46;;;;;;;2.65;1.92;;;18.60;63.80;;;;;;7838351;28;20170;-47
2022/03/07 04:40:31;;;;;;;2.85;2.30;;;18.60;63.20;;;;;;7838049;28;20182;-45
2022/03/07 04:44:17;;;;;;;7.03;2.35;;;18.60;63.20;;;;;;7864056;28;20233;-45
2022/03/07 04:48:03;;;;;;;10.57;2.42;;;18.60;63.30;;;;;;7869112;28;20246;-48
2022/03/07 04:51:49;;;;;;;7.25;2.08;;;18.60;63.20;;;;;;7868806;28;20559;-46
2022/03/07 04:55:34;;;;;;;2.90;2.28;;;18.60;63.40;;;;;;7869004;28;20173;-48
2022/03/07 04:59:20;;;;;;;8.60;2.60;;;18.60;63.40;;;;;;7868790;28;20170;-47
2022/03/07 05:03:05;;;;;;;3.05;2.22;;;18.50;63.40;;;;;;7868762;28;20220;-45
2022/03/07 05:06:51;;;;;;;3.00;2.33;;;18.50;63.40;;;;;;7868866;28;20200;-46
2022/03/07 05:10:36;;;;;;;3.95;2.10;;;18.50;63.40;;;;;;7868499;28;20213;-48
2022/03/07 05:14:22;;;;;;;6.18;2.50;;;18.50;63.70;;;;;;7868711;28;20682;-44
2022/03/07 05:18:07;;;;;;;3.83;2.15;;;18.50;63.60;;;;;;7868871;28;20173;-47
2022/03/07 05:21:53;;;;;;;2.35;2.15;;;18.50;63.60;;;;;;7859447;28;20538;-48
2022/03/07 05:25:38;;;;;;;4.45;2.45;;;18.40;63.70;;;;;;7859951;28;20196;-47
2022/03/07 05:29:23;;;;;;;2.40;2.20;;;18.40;63.70;;;;;;7868206;28;20284;-46
2022/03/07 05:33:09;;;;;;;4.88;2.40;;;18.40;63.70;;;;;;7868488;28;20197;-46
2022/03/07 05:36:55;;;;;;;4.15;2.35;;;18.40;63.70;;;;;;7871447;28;20181;-47
2022/03/07 05:40:40;;;;;;;2.95;2.05;;;18.30;63.70;;;;;;7874648;28;20560;-46
2022/03/07 05:44:26;;;;;;;3.95;2.67;;;18.40;63.90;;;;;;7874243;28;20201;-47
2022/03/07 05:48:11;;;;;;;3.92;2.42;;;18.30;63.80;;;;;;7874064;28;20201;-46
2022/03/07 05:51:57;;;;;;;31.05;3.38;;;18.30;63.80;;;;;;7868268;28;20247;-45
2022/03/07 05:55:42;;;;;;;11.52;3.22;;;18.40;64.20;;;;;;7870330;28;20181;-45
2022/03/07 05:59:28;;;;;;;5.65;2.40;;;18.50;63.70;;;;;;7870833;28;20185;-45
2022/03/07 06:03:14;;;;;;;8.07;2.60;;;18.40;64.30;;;;;;7873265;28;20289;-46
2022/03/07 06:06:59;;;;;;;8.38;2.72;;;18.50;64.50;;;;;;7869362;28;20560;-46
2022/03/07 06:10:45;;;;;;;5.53;2.33;;;18.60;64.50;;;;;;7869768;28;20619;-45
2022/03/07 06:14:30;;;;;;;5.72;2.60;;;18.60;64.50;;;;;;7868144;28;20189;-45
2022/03/07 06:18:16;;;;;;;12.00;2.65;;;18.60;64.30;;;;;;7842142;28;20656;-46
2022/03/07 06:22:01;;;;;;;11.40;2.65;;;18.50;64.50;;;;;;7841545;28;20198;-47
2022/03/07 06:25:47;;;;;;;8.23;3.00;;;18.50;64.60;;;;;;7841927;28;20174;-45
2022/03/07 06:29:32;;;;;;;5.70;2.85;;;18.50;64.50;;;;;;7841512;28;20565;-45
2022/03/07 06:33:18;;;;;;;7.13;2.75;;;18.50;64.50;;;;;;7841512;28;20197;-46
2022/03/07 06:37:03;;;;;;;14.60;3.15;;;18.50;64.90;;;;;;7841541;28;20632;-46
2022/03/07 06:40:49;;;;;;;14.23;3.38;;;18.50;64.70;;;;;;7841340;28;20188;-47
2022/03/07 06:44:39;;;;;;;8.00;2.67;;;18.50;64.80;;;;;;7841247;28;20170;-46
2022/03/07 06:48:25;;;;;;;12.77;3.00;;;18.50;64.80;;;;;;7840986;28;20201;-45
2022/03/07 06:52:10;;;;;;;12.38;3.42;;;18.50;64.80;;;;;;7840848;28;20687;-45
2022/03/07 06:55:56;;;;;;;14.88;3.40;;;18.50;64.90;;;;;;7841116;28;20186;-46
2022/03/07 06:59:41;;;;;;;13.38;3.05;;;18.40;64.80;;;;;;7840004;28;20738;-45
2022/03/07 07:03:27;;;;;;;12.52;3.03;;;18.50;65.10;;;;;;7840737;28;20213;-46
2022/03/07 07:07:14;;;;;;;11.10;3.42;;;18.40;65.00;;;;;;7840628;28;20181;-46
2022/03/07 07:11:00;;;;;;;10.93;3.72;;;18.40;64.80;;;;;;7840169;28;20869;-46
2022/03/07 07:14:45;;;;;;;7.28;2.33;;;18.40;66.00;;;;;;7840760;28;20619;-47
2022/03/07 07:18:30;;;;;;;6.50;2.70;;;18.40;65.10;;;;;;7840398;28;20170;-48
2022/03/07 07:22:16;;;;;;;10.90;2.70;;;18.40;64.20;;;;;;7839737;28;20212;-46
2022/03/07 07:26:02;;;;;;;13.63;3.10;;;18.40;64.30;;;;;;7840332;28;20235;-47
2022/03/07 07:29:47;;;;;;;11.82;2.58;;;18.40;64.50;;;;;;7840038;28;20638;-46
2022/03/07 07:33:33;;;;;;;8.88;3.20;;;18.40;64.30;;;;;;7853066;28;20212;-46
2022/03/07 07:37:18;;;;;;;14.13;2.90;;;18.50;64.30;;;;;;7870493;28;20549;-46
2022/03/07 07:41:04;;;;;;;11.25;3.17;;;18.50;64.10;;;;;;7870494;28;20208;-46
2022/03/07 07:44:50;;;;;;;15.57;3.67;;;18.60;63.70;;;;;;7870868;28;20173;-46
2022/03/07 07:48:35;;;;;;;16.73;3.55;;;18.70;63.70;;;;;;7870470;28;20205;-45
2022/03/07 07:52:21;;;;;;;14.45;3.88;;;18.80;63.90;;;;;;7866688;28;20209;-46
2022/03/07 07:56:06;;;;;;;18.80;4.35;;;18.90;63.70;;;;;;7839307;28;20196;-45
2022/03/07 07:59:52;;;;;;;17.27;4.15;;;19.00;63.60;;;;;;7835858;28;20190;-47
2022/03/07 08:03:37;;;;;;;14.75;4.47;;;19.20;63.50;;;;;;7838911;28;20209;-46
2022/03/07 08:07:22;;;;;;;14.93;4.25;;;19.20;63.50;;;;;;7839004;28;20628;-45
2022/03/07 08:11:08;;;;;;;17.27;7.05;;;19.30;63.50;;;;;;7838522;28;20339;-45
2022/03/07 08:14:53;;;;;;;25.40;7.50;;;19.40;60.80;;;;;;7838736;28;20677;-45
2022/03/07 08:18:39;;;;;;;17.42;4.88;;;19.10;59.80;;;;;;7838708;28;20192;-45
2022/03/07 08:22:24;;;;;;;16.17;5.85;;;19.10;62.40;;;;;;7838295;28;20209;-45
2022/03/07 08:26:10;;;;;;;18.95;5.60;;;19.30;62.20;;;;;;7838510;28;20267;-45
2022/03/07 08:29:55;;;;;;;14.35;6.13;;;19.60;62.20;;;;;;7838380;28;20245;-46
2022/03/07 08:33:41;;;;;;;13.45;4.97;;;19.80;62.10;;;;;;7838191;28;20275;-45
2022/03/07 08:37:27;;;;;;;19.25;5.45;;;20.10;62.00;;;;;;7838045;28;20174;-46
2022/03/07 08:41:12;;;;;;;14.90;4.90;;;20.40;62.00;;;;;;7837898;28;20198;-46
2022/03/07 08:44:58;;;;;;;15.07;5.00;;;20.70;62.00;;;;;;7838018;28;20674;-46
2022/03/07 08:48:43;;;;;;;17.17;5.13;;;21.10;61.70;;;;;;7838127;28;20201;-45
2022/03/07 08:52:28;;;;;;;11.50;4.70;;;21.30;61.60;;;;;;7837895;28;20201;-45
2022/03/07 08:56:14;;;;;;;15.57;4.75;;;21.60;61.20;;;;;;7837946;28;20220;-46
2022/03/07 09:00:00;;;;;;;10.65;4.60;;;21.90;61.30;;;;;;7837517;28;20197;-44
2022/03/07 09:03:45;;;;;;;15.57;3.92;;;22.10;61.10;;;;;;7836316;28;20733;-47
2022/03/07 09:07:31;;;;;;;10.73;4.28;;;22.20;61.30;;;;;;7838211;28;20253;-47
2022/03/07 09:11:16;;;;;;;18.15;5.20;;;22.40;61.30;;;;;;7841712;28;20701;-47
2022/03/07 09:15:04;;;;;;;18.27;5.55;;;22.60;60.70;;;;;;7844299;28;20174;-46
2022/03/07 09:18:50;;;;;;;17.55;5.25;;;22.60;60.70;;;;;;7865389;28;20242;-46
2022/03/07 09:22:36;;;;;;;17.13;5.78;;;22.70;60.70;;;;;;7874648;28;20197;-46
2022/03/07 09:26:21;;;;;;;13.65;4.88;;;22.80;60.50;;;;;;7874856;28;20178;-46
2022/03/07 09:30:07;;;;;;;13.05;4.95;;;22.80;60.50;;;;;;7874426;28;20607;-46
2022/03/07 09:33:53;;;;;;;15.90;4.80;;;22.90;60.30;;;;;;7874333;28;20193;-47
2022/03/07 09:37:38;;;;;;;8.88;5.05;;;22.90;60.30;;;;;;7874433;28;20189;-46
2022/03/07 09:41:25;;;;;;;16.80;4.88;;;23.00;60.40;;;;;;7871724;28;20189;-47
2022/03/07 09:45:12;;;;;;;16.48;4.72;;;23.00;60.40;;;;;;7874434;28;20177;-47
2022/03/07 09:48:58;;;;;;;12.90;4.40;;;22.90;60.30;;;;;;7872461;28;20240;-46
2022/03/07 09:52:45;;;;;;;13.30;4.38;;;22.90;60.30;;;;;;7873424;28;20193;-45
2022/03/07 09:56:30;;;;;;;17.98;4.47;;;22.90;59.70;;;;;;7872918;28;20242;-46
2022/03/07 10:00:18;;;;;;;14.80;4.22;;;22.90;60.30;;;;;;7847276;28;20185;-47
2022/03/07 10:04:05;;;;;;;18.23;4.03;;;22.90;60.20;;;;;;7873458;28;20346;-46
2022/03/07 10:07:50;;;;;;;12.30;3.72;;;22.80;60.20;;;;;;7873386;28;20248;-46
2022/03/07 10:11:36;;;;;;;13.93;3.60;;;22.80;60.20;;;;;;7873462;28;20197;-47
2022/03/07 10:15:22;;;;;;;14.82;3.78;;;22.80;60.30;;;;;;7873399;28;20658;-46
2022/03/07 10:19:11;;;;;;;13.27;3.50;;;22.70;60.30;;;;;;7872951;28;20265;-46
2022/03/07 10:22:59;;;;;;;16.52;3.60;;;22.70;60.40;;;;;;7872321;28;20229;-46
2022/03/07 10:26:44;;;;;;;11.23;3.40;;;22.70;60.50;;;;;;7871870;28;20184;-46
2022/03/07 10:30:32;;;;;;;15.73;4.18;;;22.60;60.40;;;;;;7841495;28;20614;-46
2022/03/07 10:34:17;;;;;;;13.50;3.35;;;22.60;60.60;;;;;;7841741;28;20240;-47
2022/03/07 10:38:07;;;;;;;10.73;3.05;;;22.50;60.70;;;;;;7841838;28;20178;-47
2022/03/07 10:41:53;;;;;;;9.35;3.20;;;22.50;60.70;;;;;;7839893;28;20206;-46
2022/03/07 10:45:50;;;;;;;6.57;2.95;;;22.50;60.80;;;;;;7840254;28;20780;-46
2022/03/07 10:49:45;;;;;;;9.15;3.35;;;22.40;60.80;;;;;;7841119;28;20201;-48
2022/03/07 10:53:40;;;;;;;24.40;3.53;;;22.40;60.80;;;;;;7841752;28;20193;-47
2022/03/07 10:57:25;;;;;;;13.50;2.90;;;22.30;60.60;;;;;;7841505;28;20189;-47
2022/03/07 11:01:11;;;;;;;13.52;2.50;;;22.30;60.70;;;;;;7840908;28;20198;-46
2022/03/07 11:04:56;;;;;;;14.45;3.22;;;22.20;60.70;;;;;;7841214;28;20228;-47
2022/03/07 11:08:43;;;;;;;13.90;3.03;;;22.20;60.60;;;;;;7840799;28;20220;-48
2022/03/07 11:12:29;;;;;;;11.13;2.90;;;22.20;60.70;;;;;;7840724;28;20225;-47
2022/03/07 11:16:15;;;;;;;11.90;2.90;;;22.30;60.70;;;;;;7841218;28;20178;-47
2022/03/07 11:20:00;;;;;;;16.13;3.17;;;22.30;60.30;;;;;;7840308;28;20229;-47
2022/03/07 11:23:46;;;;;;;12.05;2.92;;;22.40;60.60;;;;;;7853019;28;20213;-47
2022/03/07 11:27:32;;;;;;;20.35;3.10;;;22.40;60.50;;;;;;7847342;28;20190;-47
2022/03/07 11:31:22;;;;;;;19.73;3.17;;;22.50;60.70;;;;;;7839791;28;20232;-48
2022/03/07 11:35:09;;;;;;;28.13;3.80;;;22.50;61.00;;;;;;7839991;28;20173;-46
2022/03/07 11:38:59;;;;;;;23.45;4.18;;;22.60;61.40;;;;;;7839963;28;20189;-47
2022/03/07 11:42:44;;;;;;;16.67;3.15;;;22.70;62.10;;;;;;7836892;28;20220;-49
2022/03/07 11:46:33;;;;;;;18.52;3.15;;;22.70;61.70;;;;;;7839081;28;20628;-47
2022/03/07 11:50:20;;;;;;;15.98;3.42;;;22.70;62.40;;;;;;7856658;28;20252;-46
2022/03/07 11:54:18;;;;;;;23.88;3.50;;;22.70;62.10;;;;;;7851461;28;20624;-48
2022/03/07 11:58:08;;;;;;;18.70;3.10;;;22.70;62.10;;;;;;7869852;28;20177;-46
2022/03/07 12:01:54;;;;;;;19.75;3.30;;;22.70;62.20;;;;;;7868677;28;20208;-49
2022/03/07 12:05:42;;;;;;;20.10;3.05;;;22.70;62.10;;;;;;7868918;28;20212;-45
2022/03/07 12:09:32;;;;;;;16.52;2.80;;;22.80;62.10;;;;;;7869787;28;20303;-46
2022/03/07 12:13:18;;;;;;;18.08;3.28;;;22.80;62.10;;;;;;7870096;28;20722;-48
2022/03/07 12:17:18;;;;;;;14.98;3.10;;;22.80;62.00;;;;;;7866874;28;20596;-45
2022/03/07 12:21:04;;;;;;;9.55;2.83;;;22.80;62.00;;;;;;7839910;28;20255;-45
2022/03/07 12:24:49;;;;;;;21.60;3.10;;;22.70;62.00;;;;;;7855722;28;20205;-46
2022/03/07 12:28:41;;;;;;;13.43;2.95;;;22.70;62.20;;;;;;7838457;28;20198;-46
2022/03/07 12:32:26;;;;;;;11.20;3.42;;;22.70;62.00;;;;;;7837946;28;20198;-46
2022/03/07 12:36:14;;;;;;;15.60;2.95;;;22.60;61.90;;;;;;7838280;28;20709;-47
2022/03/07 12:40:03;;;;;;;15.82;2.90;;;22.60;61.80;;;;;;7838429;28;20287;-46
2022/03/07 12:43:52;;;;;;;16.52;2.90;;;22.60;61.70;;;;;;7837952;28;20209;-46
2022/03/07 12:47:38;;;;;;;9.57;2.78;;;22.60;61.70;;;;;;7852652;28;20197;-46
2022/03/07 12:51:25;;;;;;;15.68;3.33;;;22.70;61.70;;;;;;7837906;28;20217;-46
2022/03/07 12:55:14;;;;;;;11.25;2.90;;;22.70;61.60;;;;;;7838064;28;20208;-46
2022/03/07 12:59:00;;;;;;;9.93;2.85;;;22.70;61.60;;;;;;7838095;28;20285;-46
2022/03/07 13:02:50;;;;;;;8.98;2.55;;;22.70;61.60;;;;;;7837388;28;20214;-46
2022/03/07 13:06:38;;;;;;;11.35;2.63;;;22.70;61.40;;;;;;7843872;28;20186;-46
2022/03/07 13:10:25;;;;;;;6.45;2.33;;;22.70;61.40;;;;;;7837863;28;20312;-46
2022/03/07 13:14:19;;;;;;;9.05;2.30;;;22.70;61.50;;;;;;7837469;28;20665;-46
2022/03/07 13:18:05;;;;;;;5.15;2.17;;;22.60;61.40;;;;;;7837794;28;20162;-47
2022/03/07 13:21:52;;;;;;;9.38;2.30;;;22.60;61.30;;;;;;7837481;28;20198;-46
2022/03/07 13:25:47;;;;;;;4.00;2.20;;;22.60;61.40;;;;;;7839123;28;20276;-47
2022/03/07 13:29:34;;;;;;;12.07;2.83;;;22.60;61.30;;;;;;7867983;28;20228;-46
2022/03/07 13:33:20;;;;;;;8.10;1.90;;;22.60;61.40;;;;;;7868676;28;20890;-46
2022/03/07 13:37:06;;;;;;;8.70;2.53;;;22.60;61.50;;;;;;7869138;28;20711;-45
2022/03/07 13:40:51;;;;;;;11.07;2.28;;;22.60;61.40;;;;;;7868676;28;20188;-47
2022/03/07 13:44:54;;;;;;;7.20;2.10;;;22.50;61.40;;;;;;7865666;28;20178;-47
2022/03/07 13:48:40;;;;;;;5.45;2.40;;;22.50;61.50;;;;;;7842553;28;20619;-48
2022/03/07 13:52:35;;;;;;;10.02;2.55;;;22.50;61.50;;;;;;7836940;28;20255;-47
2022/03/07 13:56:26;;;;;;;7.15;2.30;;;22.50;61.40;;;;;;7838036;28;20178;-47
2022/03/07 14:00:16;;;;;;;5.82;1.80;;;22.50;61.30;;;;;;7842759;28;20186;-47
2022/03/07 14:04:13;;;;;;;7.15;2.10;;;22.50;61.20;;;;;;7842411;28;20210;-47
2022/03/07 14:08:00;;;;;;;10.50;2.00;;;22.50;61.10;;;;;;7842212;28;20647;-46
2022/03/07 14:11:45;;;;;;;4.80;2.00;;;22.50;60.70;;;;;;7842315;28;20308;-46
2022/03/07 14:15:34;;;;;;;6.10;1.80;;;22.50;60.90;;;;;;7842479;28;20174;-46
2022/03/07 14:19:19;;;;;;;6.00;1.95;;;22.50;60.90;;;;;;7841866;28;20201;-46
2022/03/07 14:23:06;;;;;;;8.68;2.30;;;22.50;61.00;;;;;;7846020;28;20360;-46
2022/03/07 14:26:52;;;;;;;3.72;2.00;;;22.50;61.00;;;;;;7845671;28;20239;-47
2022/03/07 14:30:37;;;;;;;5.75;2.10;;;22.40;60.90;;;;;;7868046;28;20240;-47
2022/03/07 14:34:23;;;;;;;6.45;1.98;;;22.50;61.00;;;;;;7866561;28;20193;-46
2022/03/07 14:38:09;;;;;;;8.77;2.20;;;22.50;61.10;;;;;;7871738;28;20177;-47
2022/03/07 14:41:55;;;;;;;7.75;2.10;;;22.50;61.20;;;;;;7840806;28;20614;-49
2022/03/07 14:45:41;;;;;;;4.82;2.20;;;22.50;61.30;;;;;;7841481;28;20224;-45
2022/03/07 14:49:26;;;;;;;7.53;1.80;;;22.50;61.20;;;;;;7841005;28;20225;-46
2022/03/07 14:53:12;;;;;;;4.10;1.90;;;22.50;61.20;;;;;;7841023;28;20198;-45
2022/03/07 14:56:58;;;;;;;9.02;2.35;;;22.50;61.20;;;;;;7870339;28;20313;-48
2022/03/07 15:00:44;;;;;;;5.32;2.10;;;22.50;61.20;;;;;;7857327;28;20779;-46
2022/03/07 15:04:29;;;;;;;4.75;1.90;;;22.50;61.40;;;;;;7841540;28;20319;-47
2022/03/07 15:08:16;;;;;;;5.50;2.13;;;22.50;61.40;;;;;;7840730;28;20958;-46
2022/03/07 15:12:05;;;;;;;3.10;1.70;;;22.50;61.20;;;;;;7840330;28;20271;-46
2022/03/07 15:15:50;;;;;;;3.42;1.98;;;22.50;61.20;;;;;;7841062;28;20251;-47
2022/03/07 15:19:37;;;;;;;10.25;2.22;;;22.40;61.30;;;;;;7858761;28;20185;-47
2022/03/07 15:23:22;;;;;;;3.08;1.75;;;22.40;61.50;;;;;;7871796;28;20288;-45
2022/03/07 15:27:08;;;;;;;5.40;2.28;;;22.40;61.50;;;;;;7871507;28;20216;-47
2022/03/07 15:30:55;;;;;;;5.43;2.28;;;22.40;62.30;;;;;;7870691;28;20258;-46
2022/03/07 15:34:41;;;;;;;5.63;2.38;;;22.40;61.40;;;;;;7871502;28;20207;-46
2022/03/07 15:38:26;;;;;;;4.38;2.13;;;22.30;61.10;;;;;;7862614;28;20194;-46
2022/03/07 15:42:12;;;;;;;4.35;2.00;;;22.40;61.30;;;;;;7839528;28;20200;-46
2022/03/07 15:45:57;;;;;;;4.22;2.10;;;22.30;61.20;;;;;;7864139;28;20528;-45
2022/03/07 15:49:43;;;;;;;5.72;2.08;;;22.30;61.20;;;;;;7870376;28;20671;-45
2022/03/07 15:53:29;;;;;;;8.43;2.22;;;22.30;61.20;;;;;;7866825;28;20289;-46
2022/03/07 15:57:14;;;;;;;2.63;1.80;;;22.30;61.10;;;;;;7839167;28;20175;-46
2022/03/07 16:01:00;;;;;;;4.93;2.00;;;22.30;61.10;;;;;;7838941;28;20273;-48
2022/03/07 16:04:46;;;;;;;5.10;2.67;;;22.40;61.00;;;;;;7839997;28;20181;-46
2022/03/07 16:08:31;;;;;;;4.78;2.20;;;22.40;60.80;;;;;;7849033;28;20770;-47
2022/03/07 16:12:17;;;;;;;7.50;2.55;;;22.40;60.70;;;;;;7838732;28;20209;-47
2022/03/07 16:16:02;;;;;;;6.45;1.95;;;22.30;60.50;;;;;;7838811;28;20192;-47
2022/03/07 16:19:48;;;;;;;8.43;2.28;;;22.30;60.50;;;;;;7837978;28;20178;-47
2022/03/07 16:23:33;;;;;;;5.75;2.33;;;22.30;60.50;;;;;;7839131;28;20757;-46
2022/03/07 16:27:19;;;;;;;8.77;2.10;;;22.30;60.30;;;;;;7840233;28;20182;-46
2022/03/07 16:31:04;;;;;;;5.88;2.35;;;22.30;60.20;;;;;;7838332;28;20288;-48
2022/03/07 16:34:50;;;;;;;4.55;2.10;;;22.30;60.20;;;;;;7838654;28;20196;-46
2022/03/07 16:38:40;;;;;;;1.92;1.70;;;22.20;60.20;;;;;;7845043;28;20229;-47
2022/03/07 16:42:27;;;;;;;5.13;2.17;;;22.20;60.00;;;;;;7838096;28;20206;-47
2022/03/07 16:46:13;;;;;;;4.15;2.45;;;22.30;60.00;;;;;;7838416;28;20181;-49
2022/03/07 16:49:58;;;;;;;5.47;2.00;;;22.20;59.90;;;;;;7838074;28;20232;-47
2022/03/07 16:53:46;;;;;;;2.83;1.92;;;22.20;60.00;;;;;;7837968;28;20201;-47
2022/03/07 16:57:32;;;;;;;5.10;2.45;;;22.20;60.00;;;;;;7838298;28;20198;-47
2022/03/07 17:01:17;;;;;;;4.20;2.38;;;22.20;59.90;;;;;;7837616;28;20209;-47
2022/03/07 17:05:04;;;;;;;4.40;2.47;;;22.20;60.00;;;;;;7849785;28;20181;-48
2022/03/07 17:08:49;;;;;;;3.42;2.13;;;22.20;59.80;;;;;;7869022;28;20205;-47
2022/03/07 17:12:35;;;;;;;5.30;2.72;;;22.10;59.70;;;;;;7869309;28;20666;-47
2022/03/07 17:16:21;;;;;;;4.97;2.83;;;22.10;59.60;;;;;;7860208;28;20257;-47
2022/03/07 17:20:09;;;;;;;7.53;3.03;;;22.10;59.70;;;;;;7852237;28;20212;-46
2022/03/07 17:23:54;;;;;;;6.45;2.92;;;22.00;59.60;;;;;;7837378;28;20205;-48
2022/03/07 17:27:40;;;;;;;5.40;2.38;;;22.00;59.40;;;;;;7837723;28;20547;-49
2022/03/07 17:31:27;;;;;;;4.80;2.80;;;22.00;59.70;;;;;;7839454;28;20223;-47
2022/03/07 17:35:13;;;;;;;6.00;2.90;;;22.00;59.50;;;;;;7843518;28;20182;-48
2022/03/07 17:38:58;;;;;;;9.18;3.17;;;21.90;59.30;;;;;;7848386;28;20181;-47
2022/03/07 17:42:46;;;;;;;11.35;3.50;;;21.90;58.60;;;;;;7843050;28;20201;-48
2022/03/07 17:46:31;;;;;;;14.63;3.58;;;21.90;58.90;;;;;;7843103;28;20182;-48
2022/03/07 17:50:17;;;;;;;21.77;4.22;;;21.90;58.70;;;;;;7843227;28;20671;-50
2022/03/07 17:54:04;;;;;;;17.08;4.53;;;21.80;56.40;;;;;;7842818;28;20296;-47
2022/03/07 17:57:49;;;;;;;13.43;4.00;;;21.60;56.50;;;;;;7842693;28;20214;-48
2022/03/07 18:01:38;;;;;;;17.15;4.10;;;21.60;57.40;;;;;;7853483;28;20226;-45
2022/03/07 18:05:23;;;;;;;27.20;9.77;;;21.60;58.70;;;;;;7852592;28;20177;-46
2022/03/07 18:09:09;;;;;;;347.20;156.13;;;21.60;57.90;;;;;;7862057;28;20209;-47
2022/03/07 18:12:55;;;;;;;376.38;163.35;;;21.70;58.60;;;;;;7873816;28;20200;-47
2022/03/07 18:16:40;;;;;;;89.22;34.88;;;21.70;58.70;;;;;;7873303;28;20185;-47
2022/03/07 18:20:26;;;;;;;111.72;41.35;;;21.80;59.20;;;;;;7873029;28;20177;-47
2022/03/07 18:24:12;;;;;;;104.35;43.20;;;21.90;59.40;;;;;;7872942;28;20197;-46
2022/03/07 18:27:58;;;;;;;134.02;57.38;;;21.90;59.40;;;;;;7859678;28;20539;-47
2022/03/07 18:31:43;;;;;;;138.52;59.13;;;22.00;59.40;;;;;;7860138;28;20216;-48
2022/03/07 18:35:29;;;;;;;144.63;57.92;;;22.10;59.60;;;;;;7872021;28;20826;-46
2022/03/07 18:39:15;;;;;;;138.40;56.00;;;22.20;60.00;;;;;;7871853;28;20185;-47
2022/03/07 18:43:01;;;;;;;125.35;52.67;;;22.40;60.20;;;;;;7871160;28;20591;-46
2022/03/07 18:46:47;;;;;;;115.97;49.13;;;22.40;60.10;;;;;;7868732;28;20193;-46
2022/03/07 18:50:33;;;;;;;115.00;47.55;;;22.60;60.20;;;;;;7840400;28;20205;-46
2022/03/07 18:54:18;;;;;;;108.15;45.28;;;22.60;60.20;;;;;;7840079;28;20202;-47
2022/03/07 18:58:04;;;;;;;102.63;43.88;;;22.70;60.40;;;;;;7840349;28;20635;-46
2022/03/07 19:01:49;;;;;;;103.15;41.05;;;22.80;60.40;;;;;;7843156;28;20217;-47
2022/03/07 19:05:37;;;;;;;95.55;40.15;;;22.80;60.50;;;;;;7849731;28;20182;-47
2022/03/07 19:09:23;;;;;;;90.13;37.83;;;22.80;60.50;;;;;;7839917;28;20194;-46
2022/03/07 19:13:08;;;;;;;82.13;34.75;;;22.80;60.50;;;;;;7851698;28;20209;-47
2022/03/07 19:16:54;;;;;;;80.53;33.38;;;22.80;60.60;;;;;;7866230;28;20186;-46
2022/03/07 19:20:41;;;;;;;71.35;31.15;;;22.80;60.60;;;;;;7839371;28;20651;-46
2022/03/07 19:24:26;;;;;;;67.97;30.98;;;22.80;60.80;;;;;;7839330;28;20194;-47
2022/03/07 19:28:12;;;;;;;76.18;30.02;;;22.80;60.80;;;;;;7839398;28;20261;-46